sensor_id;sensor_type;location;lat;lon;timestamp;temperature;humidity
32470;DHT22;18925;48.356;10.864;2022-11-12T00:00:03;6.00;99.90
32470;DHT22;18925;48.356;10.864;2022-11-12T00:00:34;6.00;99.90
32470;DHT22;18925;48.356;10.864;2022-11-12T00:01:05;6.00;99.90
32470;DHT22;18925;48.356;10.864;2022-11-12T00:01:35;6.00;99.90
32470;DHT22;18925;48.356;10.864;2022-11-12T00:02:06;6.00;99.90
32470;DHT22;18925;48.356;10.864;2022-11-12T00:02:36;6.00;99.90
32470;DHT22;18925;48.356;10.864;2022-11-12T00:03:07;6.00;99.90
32470;DHT22;18925;48.356;10.864;2022-11-12T00:03:38;6.00;99.90
32470;DHT22;18925;48.356;10.864;2022-11-12T00:04:08;5.90;99.90
32470;DHT22;18925;48.356;10.864;2022-11-12T00:04:39;6.00;99.90
32470;DHT22;18925;48.356;10.864;2022-11-12T00:05:09;5.90;99.90
32470;DHT22;18925;48.356;10.864;2022-11-12T00:05:40;5.90;99.90
32470;DHT22;18925;48.356;10.864;2022-11-12T00:06:11;5.90;99.90
32470;DHT22;18925;48.356;10.864;2022-11-12T00:06:41;5.90;99.90
32470;DHT22;18925;48.356;10.864;2022-11-12T00:07:12;5.90;99.90
32470;DHT22;18925;48.356;10.864;2022-11-12T00:07:43;5.90;99.90
32470;DHT22;18925;48.356;10.864;2022-11-12T00:08:14;5.90;99.90
32470;DHT22;18925;48.356;10.864;2022-11-12T00:08:44;6.00;99.90
32470;DHT22;18925;48.356;10.864;2022-11-12T00:09:15;5.90;99.90
32470;DHT22;18925;48.356;10.864;2022-11-12T00:09:45;5.90;99.90
32470;DHT22;18925;48.356;10.864;2022-11-12T00:10:16;5.90;99.90
32470;DHT22;18925;48.356;10.864;2022-11-12T00:10:47;5.90;99.90
32470;DHT22;18925;48.356;10.864;2022-11-12T00:11:18;5.90;99.90
32470;DHT22;18925;48.356;10.864;2022-11-12T00:11:48;5.90;99.90
32470;DHT22;18925;48.356;10.864;2022-11-12T00:12:19;5.90;99.90
32470;DHT22;18925;48.356;10.864;2022-11-12T00:12:49;5.90;99.90
32470;DHT22;18925;48.356;10.864;2022-11-12T00:13:20;6.00;99.90
32470;DHT22;18925;48.356;10.864;2022-11-12T00:13:51;6.00;99.90
32470;DHT22;18925;48.356;10.864;2022-11-12T00:14:21;6.00;99.90
32470;DHT22;18925;48.356;10.864;2022-11-12T00:14:52;6.00;99.90
32470;DHT22;18925;48.356;10.864;2022-11-12T00:15:22;6.00;99.90
32470;DHT22;18925;48.356;10.864;2022-11-12T00:15:53;6.00;99.90
32470;DHT22;18925;48.356;10.864;2022-11-12T00:16:23;6.00;99.90
32470;DHT22;18925;48.356;10.864;2022-11-12T00:16:54;6.00;99.90
32470;DHT22;18925;48.356;10.864;2022-11-12T00:17:25;6.00;99.90
32470;DHT22;18925;48.356;10.864;2022-11-12T00:17:55;6.00;99.90
32470;DHT22;18925;48.356;10.864;2022-11-12T00:18:26;6.00;99.90
32470;DHT22;18925;48.356;10.864;2022-11-12T00:18:56;6.00;99.90
32470;DHT22;18925;48.356;10.864;2022-11-12T00:19:27;6.10;99.90
32470;DHT22;18925;48.356;10.864;2022-11-12T00:19:57;6.10;99.90
32470;DHT22;18925;48.356;10.864;2022-11-12T00:20:28;6.10;99.90
32470;DHT22;18925;48.356;10.864;2022-11-12T00:20:58;6.10;99.90
32470;DHT22;18925;48.356;10.864;2022-11-12T00:21:29;6.10;99.90
32470;DHT22;18925;48.356;10.864;2022-11-12T00:22:00;6.10;99.90
32470;DHT22;18925;48.356;10.864;2022-11-12T00:22:30;6.10;99.90
32470;DHT22;18925;48.356;10.864;2022-11-12T00:23:01;6.10;99.90
32470;DHT22;18925;48.356;10.864;2022-11-12T00:23:31;6.10;99.90
32470;DHT22;18925;48.356;10.864;2022-11-12T00:24:02;6.10;99.90
32470;DHT22;18925;48.356;10.864;2022-11-12T00:24:33;6.10;99.90
32470;DHT22;18925;48.356;10.864;2022-11-12T00:25:03;6.00;99.90
32470;DHT22;18925;48.356;10.864;2022-11-12T00:25:34;6.00;99.90
32470;DHT22;18925;48.356;10.864;2022-11-12T00:26:05;6.00;99.90
32470;DHT22;18925;48.356;10.864;2022-11-12T00:26:35;6.00;99.90
32470;DHT22;18925;48.356;10.864;2022-11-12T00:27:06;6.00;99.90
32470;DHT22;18925;48.356;10.864;2022-11-12T00:27:36;6.00;99.90
32470;DHT22;18925;48.356;10.864;2022-11-12T00:28:08;6.00;99.90
32470;DHT22;18925;48.356;10.864;2022-11-12T00:28:39;6.00;99.90
32470;DHT22;18925;48.356;10.864;2022-11-12T00:29:09;6.00;99.90
32470;DHT22;18925;48.356;10.864;2022-11-12T00:29:40;6.00;99.90
32470;DHT22;18925;48.356;10.864;2022-11-12T00:30:10;6.00;99.90
32470;DHT22;18925;48.356;10.864;2022-11-12T00:30:41;6.00;99.90
32470;DHT22;18925;48.356;10.864;2022-11-12T00:31:12;5.90;99.90
32470;DHT22;18925;48.356;10.864;2022-11-12T00:31:42;5.90;99.90
32470;DHT22;18925;48.356;10.864;2022-11-12T00:32:13;5.90;99.90
32470;DHT22;18925;48.356;10.864;2022-11-12T00:32:44;5.90;99.90
32470;DHT22;18925;48.356;10.864;2022-11-12T00:33:14;5.90;99.90
32470;DHT22;18925;48.356;10.864;2022-11-12T00:33:45;5.90;99.90
32470;DHT22;18925;48.356;10.864;2022-11-12T00:34:15;5.90;99.90
32470;DHT22;18925;48.356;10.864;2022-11-12T00:34:46;5.90;99.90
32470;DHT22;18925;48.356;10.864;2022-11-12T00:35:17;5.90;99.90
32470;DHT22;18925;48.356;10.864;2022-11-12T00:35:47;5.90;99.90
32470;DHT22;18925;48.356;10.864;2022-11-12T00:36:18;5.90;99.90
32470;DHT22;18925;48.356;10.864;2022-11-12T00:36:48;5.90;99.90
32470;DHT22;18925;48.356;10.864;2022-11-12T00:37:19;5.90;99.90
32470;DHT22;18925;48.356;10.864;2022-11-12T00:37:53;5.90;99.90
32470;DHT22;18925;48.356;10.864;2022-11-12T00:38:24;5.90;99.90
32470;DHT22;18925;48.356;10.864;2022-11-12T00:38:54;5.90;99.90
32470;DHT22;18925;48.356;10.864;2022-11-12T00:39:25;5.80;99.90
32470;DHT22;18925;48.356;10.864;2022-11-12T00:39:56;5.80;99.90
32470;DHT22;18925;48.356;10.864;2022-11-12T00:40:26;5.80;99.90
32470;DHT22;18925;48.356;10.864;2022-11-12T00:41:00;5.90;99.90
32470;DHT22;18925;48.356;10.864;2022-11-12T00:41:30;5.90;99.90
32470;DHT22;18925;48.356;10.864;2022-11-12T00:42:01;5.90;99.90
32470;DHT22;18925;48.356;10.864;2022-11-12T00:42:32;5.90;99.90
32470;DHT22;18925;48.356;10.864;2022-11-12T00:43:02;5.90;99.90
32470;DHT22;18925;48.356;10.864;2022-11-12T00:43:33;5.80;99.90
32470;DHT22;18925;48.356;10.864;2022-11-12T00:44:04;5.90;99.90
32470;DHT22;18925;48.356;10.864;2022-11-12T00:44:34;5.90;99.90
32470;DHT22;18925;48.356;10.864;2022-11-12T00:45:05;5.90;99.90
32470;DHT22;18925;48.356;10.864;2022-11-12T00:45:36;5.90;99.90
32470;DHT22;18925;48.356;10.864;2022-11-12T00:46:06;5.90;99.90
32470;DHT22;18925;48.356;10.864;2022-11-12T00:46:37;5.90;99.90
32470;DHT22;18925;48.356;10.864;2022-11-12T00:47:07;6.00;99.90
32470;DHT22;18925;48.356;10.864;2022-11-12T00:47:38;5.90;99.90
32470;DHT22;18925;48.356;10.864;2022-11-12T00:48:08;5.90;99.90
32470;DHT22;18925;48.356;10.864;2022-11-12T00:48:39;5.90;99.90
32470;DHT22;18925;48.356;10.864;2022-11-12T00:49:09;5.90;99.90
32470;DHT22;18925;48.356;10.864;2022-11-12T00:49:40;5.90;99.90
32470;DHT22;18925;48.356;10.864;2022-11-12T00:50:11;5.90;99.90
32470;DHT22;18925;48.356;10.864;2022-11-12T00:50:41;5.90;99.90
32470;DHT22;18925;48.356;10.864;2022-11-12T00:51:12;5.90;99.90
32470;DHT22;18925;48.356;10.864;2022-11-12T00:51:42;5.90;99.90
32470;DHT22;18925;48.356;10.864;2022-11-12T00:52:14;5.90;99.90
32470;DHT22;18925;48.356;10.864;2022-11-12T00:52:44;5.90;99.90
32470;DHT22;18925;48.356;10.864;2022-11-12T00:53:15;5.90;99.90
32470;DHT22;18925;48.356;10.864;2022-11-12T00:53:46;5.90;99.90
32470;DHT22;18925;48.356;10.864;2022-11-12T00:54:17;5.90;99.90
32470;DHT22;18925;48.356;10.864;2022-11-12T00:54:47;5.80;99.90
32470;DHT22;18925;48.356;10.864;2022-11-12T00:55:18;5.80;99.90
32470;DHT22;18925;48.356;10.864;2022-11-12T00:55:49;5.80;99.90
32470;DHT22;18925;48.356;10.864;2022-11-12T00:56:19;5.90;99.90
32470;DHT22;18925;48.356;10.864;2022-11-12T00:56:50;5.80;99.90
32470;DHT22;18925;48.356;10.864;2022-11-12T00:57:20;5.80;99.90
32470;DHT22;18925;48.356;10.864;2022-11-12T00:57:51;5.80;99.90
32470;DHT22;18925;48.356;10.864;2022-11-12T00:58:21;5.80;99.90
32470;DHT22;18925;48.356;10.864;2022-11-12T00:58:52;5.80;99.90
32470;DHT22;18925;48.356;10.864;2022-11-12T00:59:22;5.80;99.90
32470;DHT22;18925;48.356;10.864;2022-11-12T00:59:53;5.80;99.90
32470;DHT22;18925;48.356;10.864;2022-11-12T01:00:24;5.80;99.90
32470;DHT22;18925;48.356;10.864;2022-11-12T01:00:54;5.80;99.90
32470;DHT22;18925;48.356;10.864;2022-11-12T01:01:25;5.80;99.90
32470;DHT22;18925;48.356;10.864;2022-11-12T01:01:56;5.80;99.90
32470;DHT22;18925;48.356;10.864;2022-11-12T01:02:26;5.80;99.90
32470;DHT22;18925;48.356;10.864;2022-11-12T01:02:57;5.80;99.90
32470;DHT22;18925;48.356;10.864;2022-11-12T01:03:27;5.80;99.90
32470;DHT22;18925;48.356;10.864;2022-11-12T01:03:58;5.80;99.90
32470;DHT22;18925;48.356;10.864;2022-11-12T01:04:29;5.80;99.90
32470;DHT22;18925;48.356;10.864;2022-11-12T01:04:59;5.80;99.90
32470;DHT22;18925;48.356;10.864;2022-11-12T01:05:31;5.80;99.90
32470;DHT22;18925;48.356;10.864;2022-11-12T01:06:02;5.80;99.90
32470;DHT22;18925;48.356;10.864;2022-11-12T01:06:33;5.70;99.90
32470;DHT22;18925;48.356;10.864;2022-11-12T01:07:04;5.70;99.90
32470;DHT22;18925;48.356;10.864;2022-11-12T01:07:34;5.70;99.90
32470;DHT22;18925;48.356;10.864;2022-11-12T01:08:05;5.70;99.90
32470;DHT22;18925;48.356;10.864;2022-11-12T01:08:35;5.70;99.90
32470;DHT22;18925;48.356;10.864;2022-11-12T01:09:06;5.80;99.90
32470;DHT22;18925;48.356;10.864;2022-11-12T01:09:37;5.70;99.90
32470;DHT22;18925;48.356;10.864;2022-11-12T01:10:08;5.70;99.90
32470;DHT22;18925;48.356;10.864;2022-11-12T01:10:39;5.70;99.90
32470;DHT22;18925;48.356;10.864;2022-11-12T01:11:10;5.70;99.90
32470;DHT22;18925;48.356;10.864;2022-11-12T01:11:41;5.70;99.90
32470;DHT22;18925;48.356;10.864;2022-11-12T01:12:12;5.70;99.90
32470;DHT22;18925;48.356;10.864;2022-11-12T01:12:42;5.70;99.90
32470;DHT22;18925;48.356;10.864;2022-11-12T01:13:13;5.70;99.90
32470;DHT22;18925;48.356;10.864;2022-11-12T01:13:44;5.80;99.90
32470;DHT22;18925;48.356;10.864;2022-11-12T01:14:15;5.80;99.90
32470;DHT22;18925;48.356;10.864;2022-11-12T01:14:46;5.80;99.90
32470;DHT22;18925;48.356;10.864;2022-11-12T01:15:16;5.80;99.90
32470;DHT22;18925;48.356;10.864;2022-11-12T01:15:47;5.70;99.90
32470;DHT22;18925;48.356;10.864;2022-11-12T01:16:18;5.80;99.90
32470;DHT22;18925;48.356;10.864;2022-11-12T01:16:49;5.70;99.90
32470;DHT22;18925;48.356;10.864;2022-11-12T01:17:20;5.80;99.90
32470;DHT22;18925;48.356;10.864;2022-11-12T01:17:50;5.70;99.90
32470;DHT22;18925;48.356;10.864;2022-11-12T01:18:21;5.70;99.90
32470;DHT22;18925;48.356;10.864;2022-11-12T01:18:52;5.70;99.90
32470;DHT22;18925;48.356;10.864;2022-11-12T01:19:24;5.70;99.90
32470;DHT22;18925;48.356;10.864;2022-11-12T01:19:54;5.70;99.90
32470;DHT22;18925;48.356;10.864;2022-11-12T01:20:25;5.70;99.90
32470;DHT22;18925;48.356;10.864;2022-11-12T01:20:58;5.80;99.90
32470;DHT22;18925;48.356;10.864;2022-11-12T01:21:30;5.80;99.90
32470;DHT22;18925;48.356;10.864;2022-11-12T01:22:01;5.80;99.90
32470;DHT22;18925;48.356;10.864;2022-11-12T01:22:31;5.80;99.90
32470;DHT22;18925;48.356;10.864;2022-11-12T01:23:02;5.80;99.90
32470;DHT22;18925;48.356;10.864;2022-11-12T01:23:37;5.80;99.90
32470;DHT22;18925;48.356;10.864;2022-11-12T01:24:08;5.80;99.90
32470;DHT22;18925;48.356;10.864;2022-11-12T01:24:38;5.80;99.90
32470;DHT22;18925;48.356;10.864;2022-11-12T01:25:09;5.80;99.90
32470;DHT22;18925;48.356;10.864;2022-11-12T01:25:40;5.80;99.90
32470;DHT22;18925;48.356;10.864;2022-11-12T01:26:11;5.80;99.90
32470;DHT22;18925;48.356;10.864;2022-11-12T01:26:44;5.80;99.90
32470;DHT22;18925;48.356;10.864;2022-11-12T01:27:15;5.80;99.90
32470;DHT22;18925;48.356;10.864;2022-11-12T01:27:45;5.80;99.90
32470;DHT22;18925;48.356;10.864;2022-11-12T01:28:16;5.80;99.90
32470;DHT22;18925;48.356;10.864;2022-11-12T01:28:47;5.80;99.90
32470;DHT22;18925;48.356;10.864;2022-11-12T01:29:18;5.90;99.90
32470;DHT22;18925;48.356;10.864;2022-11-12T01:29:48;5.90;99.90
32470;DHT22;18925;48.356;10.864;2022-11-12T01:30:19;5.90;99.90
32470;DHT22;18925;48.356;10.864;2022-11-12T01:30:49;5.90;99.90
32470;DHT22;18925;48.356;10.864;2022-11-12T01:31:22;5.90;99.90
32470;DHT22;18925;48.356;10.864;2022-11-12T01:31:53;5.90;99.90
32470;DHT22;18925;48.356;10.864;2022-11-12T01:32:24;5.90;99.90
32470;DHT22;18925;48.356;10.864;2022-11-12T01:32:55;5.80;99.90
32470;DHT22;18925;48.356;10.864;2022-11-12T01:33:25;5.80;99.90
32470;DHT22;18925;48.356;10.864;2022-11-12T01:33:57;5.80;99.90
32470;DHT22;18925;48.356;10.864;2022-11-12T01:34:28;5.90;99.90
32470;DHT22;18925;48.356;10.864;2022-11-12T01:34:59;5.90;99.90
32470;DHT22;18925;48.356;10.864;2022-11-12T01:35:29;5.80;99.90
32470;DHT22;18925;48.356;10.864;2022-11-12T01:36:00;5.90;99.90
32470;DHT22;18925;48.356;10.864;2022-11-12T01:36:32;5.80;99.90
32470;DHT22;18925;48.356;10.864;2022-11-12T01:37:03;5.80;99.90
32470;DHT22;18925;48.356;10.864;2022-11-12T01:37:34;5.80;99.90
32470;DHT22;18925;48.356;10.864;2022-11-12T01:38:04;5.80;99.90
32470;DHT22;18925;48.356;10.864;2022-11-12T01:38:35;5.80;99.90
32470;DHT22;18925;48.356;10.864;2022-11-12T01:39:07;5.80;99.90
32470;DHT22;18925;48.356;10.864;2022-11-12T01:39:37;5.80;99.90
32470;DHT22;18925;48.356;10.864;2022-11-12T01:40:08;5.80;99.90
32470;DHT22;18925;48.356;10.864;2022-11-12T01:40:39;5.80;99.90
32470;DHT22;18925;48.356;10.864;2022-11-12T01:41:11;5.70;99.90
32470;DHT22;18925;48.356;10.864;2022-11-12T01:41:42;5.80;99.90
32470;DHT22;18925;48.356;10.864;2022-11-12T01:42:12;5.70;99.90
32470;DHT22;18925;48.356;10.864;2022-11-12T01:42:43;5.60;99.90
32470;DHT22;18925;48.356;10.864;2022-11-12T01:43:20;5.70;99.90
32470;DHT22;18925;48.356;10.864;2022-11-12T01:44:41;5.60;99.90
32470;DHT22;18925;48.356;10.864;2022-11-12T01:45:12;5.60;99.90
32470;DHT22;18925;48.356;10.864;2022-11-12T01:45:45;5.70;99.90
32470;DHT22;18925;48.356;10.864;2022-11-12T01:46:52;5.60;99.90
32470;DHT22;18925;48.356;10.864;2022-11-12T01:47:26;5.60;99.90
32470;DHT22;18925;48.356;10.864;2022-11-12T01:47:58;5.60;99.90
32470;DHT22;18925;48.356;10.864;2022-11-12T01:48:30;5.60;99.90
32470;DHT22;18925;48.356;10.864;2022-11-12T01:49:03;5.60;99.90
32470;DHT22;18925;48.356;10.864;2022-11-12T01:50:41;5.60;99.90
32470;DHT22;18925;48.356;10.864;2022-11-12T01:51:12;5.60;99.90
32470;DHT22;18925;48.356;10.864;2022-11-12T01:51:45;5.60;99.90
32470;DHT22;18925;48.356;10.864;2022-11-12T01:52:28;5.70;99.90
32470;DHT22;18925;48.356;10.864;2022-11-12T01:53:01;5.60;99.90
32470;DHT22;18925;48.356;10.864;2022-11-12T01:53:35;5.70;99.90
32470;DHT22;18925;48.356;10.864;2022-11-12T01:54:07;5.70;99.90
32470;DHT22;18925;48.356;10.864;2022-11-12T01:54:38;5.70;99.90
32470;DHT22;18925;48.356;10.864;2022-11-12T01:55:10;5.70;99.90
32470;DHT22;18925;48.356;10.864;2022-11-12T01:55:42;5.60;99.90
32470;DHT22;18925;48.356;10.864;2022-11-12T01:56:13;5.60;99.90
32470;DHT22;18925;48.356;10.864;2022-11-12T01:56:45;5.70;99.90
32470;DHT22;18925;48.356;10.864;2022-11-12T01:57:17;5.70;99.90
32470;DHT22;18925;48.356;10.864;2022-11-12T01:57:51;5.60;99.90
32470;DHT22;18925;48.356;10.864;2022-11-12T01:58:23;5.60;99.90
32470;DHT22;18925;48.356;10.864;2022-11-12T01:58:58;5.60;99.90
32470;DHT22;18925;48.356;10.864;2022-11-12T01:59:32;5.60;99.90
32470;DHT22;18925;48.356;10.864;2022-11-12T02:00:05;5.60;99.90
32470;DHT22;18925;48.356;10.864;2022-11-12T02:00:36;5.60;99.90
32470;DHT22;18925;48.356;10.864;2022-11-12T02:01:08;5.60;99.90
32470;DHT22;18925;48.356;10.864;2022-11-12T02:01:39;5.60;99.90
32470;DHT22;18925;48.356;10.864;2022-11-12T02:02:09;5.60;99.90
32470;DHT22;18925;48.356;10.864;2022-11-12T02:02:40;5.60;99.90
32470;DHT22;18925;48.356;10.864;2022-11-12T02:03:14;5.60;99.90
32470;DHT22;18925;48.356;10.864;2022-11-12T02:03:45;5.50;99.90
32470;DHT22;18925;48.356;10.864;2022-11-12T02:04:16;5.60;99.90
32470;DHT22;18925;48.356;10.864;2022-11-12T02:04:46;5.60;99.90
32470;DHT22;18925;48.356;10.864;2022-11-12T02:05:18;5.60;99.90
32470;DHT22;18925;48.356;10.864;2022-11-12T02:05:52;5.60;99.90
32470;DHT22;18925;48.356;10.864;2022-11-12T02:06:24;5.60;99.90
32470;DHT22;18925;48.356;10.864;2022-11-12T02:06:54;5.60;99.90
32470;DHT22;18925;48.356;10.864;2022-11-12T02:07:26;5.60;99.90
32470;DHT22;18925;48.356;10.864;2022-11-12T02:07:57;5.60;99.90
32470;DHT22;18925;48.356;10.864;2022-11-12T02:08:29;5.60;99.90
32470;DHT22;18925;48.356;10.864;2022-11-12T02:09:00;5.50;99.90
32470;DHT22;18925;48.356;10.864;2022-11-12T02:09:31;5.40;99.90
32470;DHT22;18925;48.356;10.864;2022-11-12T02:10:02;5.40;99.90
32470;DHT22;18925;48.356;10.864;2022-11-12T02:10:33;5.40;99.90
32470;DHT22;18925;48.356;10.864;2022-11-12T02:11:37;5.40;99.90
32470;DHT22;18925;48.356;10.864;2022-11-12T02:12:01;5.40;99.90
32470;DHT22;18925;48.356;10.864;2022-11-12T02:12:31;5.40;99.90
32470;DHT22;18925;48.356;10.864;2022-11-12T02:13:21;5.40;99.90
32470;DHT22;18925;48.356;10.864;2022-11-12T02:14:10;5.40;99.90
32470;DHT22;18925;48.356;10.864;2022-11-12T02:14:41;5.30;99.90
32470;DHT22;18925;48.356;10.864;2022-11-12T02:15:12;5.30;99.90
32470;DHT22;18925;48.356;10.864;2022-11-12T02:15:42;5.30;99.90
32470;DHT22;18925;48.356;10.864;2022-11-12T02:16:13;5.30;99.90
32470;DHT22;18925;48.356;10.864;2022-11-12T02:16:44;5.30;99.90
32470;DHT22;18925;48.356;10.864;2022-11-12T02:17:15;5.30;99.90
32470;DHT22;18925;48.356;10.864;2022-11-12T02:17:45;5.30;99.90
32470;DHT22;18925;48.356;10.864;2022-11-12T02:18:16;5.30;99.90
32470;DHT22;18925;48.356;10.864;2022-11-12T02:18:46;5.30;99.90
32470;DHT22;18925;48.356;10.864;2022-11-12T02:19:17;5.30;99.90
32470;DHT22;18925;48.356;10.864;2022-11-12T02:19:47;5.30;99.90
32470;DHT22;18925;48.356;10.864;2022-11-12T02:20:18;5.30;99.90
32470;DHT22;18925;48.356;10.864;2022-11-12T02:20:52;5.40;99.90
32470;DHT22;18925;48.356;10.864;2022-11-12T02:21:23;5.40;99.90
32470;DHT22;18925;48.356;10.864;2022-11-12T02:21:54;5.40;99.90
32470;DHT22;18925;48.356;10.864;2022-11-12T02:22:25;5.40;99.90
32470;DHT22;18925;48.356;10.864;2022-11-12T02:22:55;5.40;99.90
32470;DHT22;18925;48.356;10.864;2022-11-12T02:23:26;5.40;99.90
32470;DHT22;18925;48.356;10.864;2022-11-12T02:24:00;5.40;99.90
32470;DHT22;18925;48.356;10.864;2022-11-12T02:24:32;5.50;99.90
32470;DHT22;18925;48.356;10.864;2022-11-12T02:25:03;5.40;99.90
32470;DHT22;18925;48.356;10.864;2022-11-12T02:25:34;5.40;99.90
32470;DHT22;18925;48.356;10.864;2022-11-12T02:26:04;5.40;99.90
32470;DHT22;18925;48.356;10.864;2022-11-12T02:26:36;5.40;99.90
32470;DHT22;18925;48.356;10.864;2022-11-12T02:27:08;5.40;99.90
32470;DHT22;18925;48.356;10.864;2022-11-12T02:27:40;5.30;99.90
32470;DHT22;18925;48.356;10.864;2022-11-12T02:28:11;5.40;99.90
32470;DHT22;18925;48.356;10.864;2022-11-12T02:28:41;5.40;99.90
32470;DHT22;18925;48.356;10.864;2022-11-12T02:29:12;5.40;99.90
32470;DHT22;18925;48.356;10.864;2022-11-12T02:29:43;5.40;99.90
32470;DHT22;18925;48.356;10.864;2022-11-12T02:30:17;5.40;99.90
32470;DHT22;18925;48.356;10.864;2022-11-12T02:30:48;5.40;99.90
32470;DHT22;18925;48.356;10.864;2022-11-12T02:31:18;5.40;99.90
32470;DHT22;18925;48.356;10.864;2022-11-12T02:31:49;5.40;99.90
32470;DHT22;18925;48.356;10.864;2022-11-12T02:32:20;5.40;99.90
32470;DHT22;18925;48.356;10.864;2022-11-12T02:32:50;5.40;99.90
32470;DHT22;18925;48.356;10.864;2022-11-12T02:33:21;5.40;99.90
32470;DHT22;18925;48.356;10.864;2022-11-12T02:33:51;5.40;99.90
32470;DHT22;18925;48.356;10.864;2022-11-12T02:34:22;5.40;99.90
32470;DHT22;18925;48.356;10.864;2022-11-12T02:34:53;5.40;99.90
32470;DHT22;18925;48.356;10.864;2022-11-12T02:35:23;5.40;99.90
32470;DHT22;18925;48.356;10.864;2022-11-12T02:35:54;5.40;99.90
32470;DHT22;18925;48.356;10.864;2022-11-12T02:36:24;5.40;99.90
32470;DHT22;18925;48.356;10.864;2022-11-12T02:36:55;5.40;99.90
32470;DHT22;18925;48.356;10.864;2022-11-12T02:37:25;5.40;99.90
32470;DHT22;18925;48.356;10.864;2022-11-12T02:37:56;5.40;99.90
32470;DHT22;18925;48.356;10.864;2022-11-12T02:38:27;5.40;99.90
32470;DHT22;18925;48.356;10.864;2022-11-12T02:38:57;5.50;99.90
32470;DHT22;18925;48.356;10.864;2022-11-12T02:39:28;5.50;99.90
32470;DHT22;18925;48.356;10.864;2022-11-12T02:39:58;5.40;99.90
32470;DHT22;18925;48.356;10.864;2022-11-12T02:40:29;5.50;99.90
32470;DHT22;18925;48.356;10.864;2022-11-12T02:40:59;5.50;99.90
32470;DHT22;18925;48.356;10.864;2022-11-12T02:41:30;5.50;99.90
32470;DHT22;18925;48.356;10.864;2022-11-12T02:42:01;5.40;99.90
32470;DHT22;18925;48.356;10.864;2022-11-12T02:42:31;5.40;99.90
32470;DHT22;18925;48.356;10.864;2022-11-12T02:43:02;5.50;99.90
32470;DHT22;18925;48.356;10.864;2022-11-12T02:43:33;5.50;99.90
32470;DHT22;18925;48.356;10.864;2022-11-12T02:44:04;5.50;99.90
32470;DHT22;18925;48.356;10.864;2022-11-12T02:44:34;5.40;99.90
32470;DHT22;18925;48.356;10.864;2022-11-12T02:45:05;5.40;99.90
32470;DHT22;18925;48.356;10.864;2022-11-12T02:45:35;5.50;99.90
32470;DHT22;18925;48.356;10.864;2022-11-12T02:46:06;5.50;99.90
32470;DHT22;18925;48.356;10.864;2022-11-12T02:46:36;5.40;99.90
32470;DHT22;18925;48.356;10.864;2022-11-12T02:47:07;5.40;99.90
32470;DHT22;18925;48.356;10.864;2022-11-12T02:47:38;5.50;99.90
32470;DHT22;18925;48.356;10.864;2022-11-12T02:48:08;5.40;99.90
32470;DHT22;18925;48.356;10.864;2022-11-12T02:48:39;5.40;99.90
32470;DHT22;18925;48.356;10.864;2022-11-12T02:49:09;5.40;99.90
32470;DHT22;18925;48.356;10.864;2022-11-12T02:49:40;5.40;99.90
32470;DHT22;18925;48.356;10.864;2022-11-12T02:50:11;5.40;99.90
32470;DHT22;18925;48.356;10.864;2022-11-12T02:50:42;5.40;99.90
32470;DHT22;18925;48.356;10.864;2022-11-12T02:51:12;5.50;99.90
32470;DHT22;18925;48.356;10.864;2022-11-12T02:51:43;5.50;99.90
32470;DHT22;18925;48.356;10.864;2022-11-12T02:52:13;5.50;99.90
32470;DHT22;18925;48.356;10.864;2022-11-12T02:52:44;5.40;99.90
32470;DHT22;18925;48.356;10.864;2022-11-12T02:53:15;5.40;99.90
32470;DHT22;18925;48.356;10.864;2022-11-12T02:53:45;5.40;99.90
32470;DHT22;18925;48.356;10.864;2022-11-12T02:54:16;5.50;99.90
32470;DHT22;18925;48.356;10.864;2022-11-12T02:54:46;5.40;99.90
32470;DHT22;18925;48.356;10.864;2022-11-12T02:55:17;5.40;99.90
32470;DHT22;18925;48.356;10.864;2022-11-12T02:55:47;5.40;99.90
32470;DHT22;18925;48.356;10.864;2022-11-12T02:56:18;5.40;99.90
32470;DHT22;18925;48.356;10.864;2022-11-12T02:56:49;5.30;99.90
32470;DHT22;18925;48.356;10.864;2022-11-12T02:57:19;5.30;99.90
32470;DHT22;18925;48.356;10.864;2022-11-12T02:57:50;5.30;99.90
32470;DHT22;18925;48.356;10.864;2022-11-12T02:58:20;5.30;99.90
32470;DHT22;18925;48.356;10.864;2022-11-12T02:58:54;5.30;99.90
32470;DHT22;18925;48.356;10.864;2022-11-12T02:59:24;5.30;99.90
32470;DHT22;18925;48.356;10.864;2022-11-12T02:59:55;5.30;99.90
32470;DHT22;18925;48.356;10.864;2022-11-12T03:00:25;5.20;99.90
32470;DHT22;18925;48.356;10.864;2022-11-12T03:00:56;5.20;99.90
32470;DHT22;18925;48.356;10.864;2022-11-12T03:01:27;5.20;99.90
32470;DHT22;18925;48.356;10.864;2022-11-12T03:01:58;5.20;99.90
32470;DHT22;18925;48.356;10.864;2022-11-12T03:02:28;5.10;99.90
32470;DHT22;18925;48.356;10.864;2022-11-12T03:02:59;5.10;99.90
32470;DHT22;18925;48.356;10.864;2022-11-12T03:03:29;5.10;99.90
32470;DHT22;18925;48.356;10.864;2022-11-12T03:04:00;5.10;99.90
32470;DHT22;18925;48.356;10.864;2022-11-12T03:04:31;5.10;99.90
32470;DHT22;18925;48.356;10.864;2022-11-12T03:05:01;5.10;99.90
32470;DHT22;18925;48.356;10.864;2022-11-12T03:05:34;5.10;99.90
32470;DHT22;18925;48.356;10.864;2022-11-12T03:06:05;5.10;99.90
32470;DHT22;18925;48.356;10.864;2022-11-12T03:06:36;5.10;99.90
32470;DHT22;18925;48.356;10.864;2022-11-12T03:07:06;5.10;99.90
32470;DHT22;18925;48.356;10.864;2022-11-12T03:07:37;5.10;99.90
32470;DHT22;18925;48.356;10.864;2022-11-12T03:08:08;5.10;99.90
32470;DHT22;18925;48.356;10.864;2022-11-12T03:08:39;5.10;99.90
32470;DHT22;18925;48.356;10.864;2022-11-12T03:09:10;5.00;99.90
32470;DHT22;18925;48.356;10.864;2022-11-12T03:09:40;5.00;99.90
32470;DHT22;18925;48.356;10.864;2022-11-12T03:10:11;5.00;99.90
32470;DHT22;18925;48.356;10.864;2022-11-12T03:10:42;5.00;99.90
32470;DHT22;18925;48.356;10.864;2022-11-12T03:11:13;4.90;99.90
32470;DHT22;18925;48.356;10.864;2022-11-12T03:11:44;4.90;99.90
32470;DHT22;18925;48.356;10.864;2022-11-12T03:12:14;5.00;99.90
32470;DHT22;18925;48.356;10.864;2022-11-12T03:12:45;4.90;99.90
32470;DHT22;18925;48.356;10.864;2022-11-12T03:13:16;4.90;99.90
32470;DHT22;18925;48.356;10.864;2022-11-12T03:13:46;5.00;99.90
32470;DHT22;18925;48.356;10.864;2022-11-12T03:14:17;5.00;99.90
32470;DHT22;18925;48.356;10.864;2022-11-12T03:14:48;5.00;99.90
32470;DHT22;18925;48.356;10.864;2022-11-12T03:15:18;4.90;99.90
32470;DHT22;18925;48.356;10.864;2022-11-12T03:15:49;4.90;99.90
32470;DHT22;18925;48.356;10.864;2022-11-12T03:16:19;4.90;99.90
32470;DHT22;18925;48.356;10.864;2022-11-12T03:16:50;4.90;99.90
32470;DHT22;18925;48.356;10.864;2022-11-12T03:17:20;5.00;99.90
32470;DHT22;18925;48.356;10.864;2022-11-12T03:17:51;5.00;99.90
32470;DHT22;18925;48.356;10.864;2022-11-12T03:18:22;5.00;99.90
32470;DHT22;18925;48.356;10.864;2022-11-12T03:18:52;5.00;99.90